createdAt,value
2018-12-12T07:33:37.231Z,3.7
2018-12-12T07:50:21.821Z,3.7
2018-12-12T08:07:06.495Z,3.7
2018-12-12T08:23:51.191Z,3.7
2018-12-12T08:40:35.864Z,3.7
2018-12-12T08:57:20.864Z,3.7
2018-12-12T09:14:06.095Z,3.8
2018-12-12T09:30:51.233Z,3.8
2018-12-12T09:47:36.463Z,3.8
2018-12-12T10:04:21.691Z,3.9
2018-12-12T10:21:06.921Z,3.9
2018-12-12T10:37:52.270Z,4.0
2018-12-12T10:54:37.486Z,4.1
2018-12-12T11:11:22.772Z,4.3
2018-12-12T11:28:08.701Z,4.3
2018-12-12T11:44:54.934Z,4.4
2018-12-12T12:01:40.792Z,4.4
2018-12-12T12:18:26.660Z,4.4
2018-12-12T12:35:12.475Z,4.4
2018-12-12T12:51:58.370Z,4.5
2018-12-12T13:08:44.199Z,4.5
2018-12-12T13:25:30.117Z,4.5
2018-12-12T13:42:16.203Z,4.5
2018-12-12T13:59:02.201Z,4.5
2018-12-12T14:15:47.951Z,4.5
2018-12-12T14:32:33.924Z,4.4
2018-12-12T14:49:19.882Z,4.4
2018-12-12T15:06:05.982Z,4.4
2018-12-12T15:22:51.967Z,4.4
2018-12-12T15:39:38.076Z,4.3
2018-12-12T15:56:24.132Z,4.3
2018-12-12T16:13:10.221Z,4.3
2018-12-12T16:29:56.379Z,4.3
2018-12-12T16:46:48.779Z,4.3
2018-12-12T17:03:28.303Z,4.2
2018-12-12T17:20:13.713Z,4.2
2018-12-12T17:36:59.218Z,4.2
2018-12-12T17:53:44.662Z,4.2
2018-12-12T18:10:30.060Z,4.2
2018-12-12T18:27:15.394Z,4.2
2018-12-12T18:44:00.872Z,4.2
2018-12-12T19:00:46.329Z,4.2
2018-12-12T19:17:31.609Z,4.2
2018-12-12T19:34:17.139Z,4.1
2018-12-12T19:51:02.328Z,4.1
2018-12-12T20:07:47.817Z,4.1
2018-12-12T20:24:33.252Z,4.1
2018-12-12T20:41:20.555Z,4.1
2018-12-12T20:58:04.326Z,4.1
2018-12-12T21:14:49.567Z,4.1
2018-12-12T21:31:34.904Z,4.1
2018-12-12T21:48:20.237Z,4.1
2018-12-12T22:05:05.497Z,4.0
2018-12-12T22:21:50.649Z,4.0
2018-12-12T22:38:35.569Z,4.0
2018-12-12T22:55:20.469Z,4.0
2018-12-12T23:12:05.375Z,4.0
2018-12-12T23:28:50.137Z,4.0
2018-12-12T23:45:34.814Z,4.0
